Startpagina
METAR-TAF:

METAR-TAF

Vliegvelden :

Gibraltar Airport

Gibraltar, Gibraltar

breedte: 36-09N, lengte: 005-21W, hoogte: 5 m

Actueel weer

Dit bericht is 1 uur en het 27 minuten geleden gemaakt, om 10:50 UTC
Wind 12 kt uit het oostnoordoosten
Temperatuur 18°C
Vochtigheid 88%
Druk 1017 hPa
Zicht 10 km of meer
Weinig wolken op 800 ft
Verspreide wolken op 1200 ft
Gebroken wolken op 2600 ft

METAR: LXGB 161050Z 07012KT 9999 FEW008 SCT012 BKN026 18/16 Q1017 TEMPO FEW012

Tijdstip: 13:17 (12:17 UTC)

Verwachting

Dit bericht is 1 uur en het 21 minuten geleden gemaakt, om 10:56 UTC
Verwachting geldig van 16 om 12 UTC tot 16 om 21 UTC
Wind 12 kt uit het oosten met uitschieters tot 22 kt
Zicht 10 km of meer
Verspreide wolken op 1000 ft
Gebroken wolken op 2000 ft
Tijdelijke
van 16 om 12 UTC tot 16 om 21 UTC
Weinig wolken op 1100 ft
Gebroken wolken op 2500 ft

TAF: LXGB 161056Z 1612/1621 08012G22KT 9999 SCT010 BKN020 TEMPO 1612/1621 FEW011 BKN025

Waarnemingen en weersverwachtingen van meer dan 4000 vliegvelden (METAR en TAF).

De beschikbare stations zijn de gele en rode punten op de kaart.

Ga met uw muis naar het station om de naam te zien.

Klik dan om waarnemingen en weersverwachtingen te zien.

kaart wijzigen: klik op de groene knoppen met een zwart kruis om in te zoomen, op de groene knop met een streepje om uit te zoomen of op de groene pijlen voor aangrenzende kaarten.


METAR-TAF: